Time;durP1;ratioP1;P1;durP2;ratioP2;P2;SDS_P1;SDS_P2;PMS_P1;PMS_P2;Temp;Humidity;BMP_temperature;BMP_pressure;BME280_temperature;BME280_humidity;BME280_pressure;Samples;Min_cycle;Max_cycle;Signal;HPM_P1;HPM_P2
2021/01/13 00:01:28;;;;;;;25.90;8.60;;;1.30;99.90;;;;;;5024113;23;20063;-90
2021/01/13 00:03:56;;;;;;;28.92;10.50;;;1.30;99.90;;;;;;4893597;29;20038;-90
2021/01/13 00:06:22;;;;;;;24.52;8.98;;;1.30;99.90;;;;;;4859471;29;20033;-93
2021/01/13 00:08:51;;;;;;;21.80;7.70;;;1.40;99.90;;;;;;4868673;29;20440;-92
2021/01/13 00:11:19;;;;;;;24.10;8.70;;;1.40;99.90;;;;;;4887063;29;20016;-91
2021/01/13 00:13:44;;;;;;;21.65;7.93;;;1.50;99.90;;;;;;4883509;29;20423;-90
2021/01/13 00:16:14;;;;;;;22.52;8.05;;;1.50;99.90;;;;;;4897750;29;20021;-91
2021/01/13 00:18:40;;;;;;;20.02;8.82;;;1.50;99.90;;;;;;4886089;29;20061;-91
2021/01/13 00:21:16;;;;;;;22.85;8.40;;;1.50;99.90;;;;;;4900883;29;20163;-93
2021/01/13 00:23:49;;;;;;;22.25;8.30;;;1.50;99.90;;;;;;4872167;29;20399;-91
2021/01/13 00:26:25;;;;;;;17.77;8.20;;;1.60;99.90;;;;;;4884307;29;20040;-92
2021/01/13 00:28:52;;;;;;;22.08;8.85;;;1.50;99.90;;;;;;4911843;29;20029;-93
2021/01/13 00:31:19;;;;;;;18.95;7.95;;;1.60;99.90;;;;;;4881719;29;20021;-92
2021/01/13 00:33:52;;;;;;;21.15;7.55;;;1.60;99.90;;;;;;4878957;29;20059;-91
2021/01/13 00:36:36;;;;;;;20.77;8.10;;;1.70;99.90;;;;;;4877643;29;20033;-91
2021/01/13 00:39:05;;;;;;;30.50;10.45;;;1.60;99.90;;;;;;4861740;29;20057;-91
2021/01/13 00:41:31;;;;;;;18.25;8.48;;;1.50;99.90;;;;;;4880998;29;20025;-92
2021/01/13 00:43:57;;;;;;;22.20;8.70;;;1.50;99.90;;;;;;4882831;29;20032;-94
2021/01/13 00:46:24;;;;;;;18.05;8.55;;;1.60;99.90;;;;;;4906089;29;20088;-91
2021/01/13 00:48:52;;;;;;;17.50;7.32;;;1.50;99.90;;;;;;4894526;29;20089;-90
2021/01/13 00:51:18;;;;;;;18.00;8.23;;;1.50;99.90;;;;;;4874220;29;20021;-91
2021/01/13 00:53:44;;;;;;;18.40;9.07;;;1.60;99.90;;;;;;4889884;29;20097;-90
2021/01/13 00:56:09;;;;;;;19.77;8.65;;;1.60;99.90;;;;;;4902607;29;20047;-91
2021/01/13 00:58:39;;;;;;;19.90;8.30;;;1.70;99.90;;;;;;4883657;29;20029;-91
2021/01/13 01:01:04;;;;;;;19.63;8.13;;;1.60;99.90;;;;;;4916950;29;20122;-88
2021/01/13 01:03:31;;;;;;;27.98;9.82;;;1.60;99.90;;;;;;4909517;29;20065;-93
2021/01/13 01:05:57;;;;;;;29.30;9.23;;;1.60;99.90;;;;;;4885902;29;20486;-92
2021/01/13 01:08:22;;;;;;;30.63;10.10;;;1.50;99.90;;;;;;4868238;29;20466;-88
2021/01/13 01:10:52;;;;;;;21.90;8.70;;;1.50;99.90;;;;;;4869742;29;20032;-93
2021/01/13 01:13:18;;;;;;;16.55;8.00;;;1.40;99.90;;;;;;4877890;29;20029;-91
2021/01/13 01:15:44;;;;;;;23.15;8.65;;;1.40;99.90;;;;;;4870747;29;20076;-89
2021/01/13 01:18:10;;;;;;;19.55;8.60;;;1.30;99.90;;;;;;4897946;29;20048;-89
2021/01/13 01:20:35;;;;;;;17.13;8.10;;;1.30;99.90;;;;;;4883393;29;20044;-91
2021/01/13 01:23:05;;;;;;;18.52;7.57;;;1.20;99.90;;;;;;4903661;29;20085;-92
2021/01/13 01:25:35;;;;;;;26.88;9.35;;;1.20;99.90;;;;;;4866001;29;20025;-92
2021/01/13 01:28:01;;;;;;;22.77;8.50;;;1.20;99.90;;;;;;4851485;29;20026;-93
2021/01/13 01:30:29;;;;;;;22.25;9.10;;;1.10;99.90;;;;;;4866760;29;20085;-91
2021/01/13 01:32:55;;;;;;;22.50;8.95;;;1.20;99.90;;;;;;4845513;29;20018;-93
2021/01/13 01:35:21;;;;;;;16.05;8.25;;;1.30;99.90;;;;;;4850994;29;20050;-91
2021/01/13 01:37:47;;;;;;;23.08;9.27;;;1.30;99.90;;;;;;4846154;29;20045;-91
2021/01/13 01:40:16;;;;;;;19.23;8.95;;;1.30;99.90;;;;;;4854639;29;20054;-92
2021/01/13 01:42:54;;;;;;;19.20;8.40;;;1.30;99.90;;;;;;4845268;29;20038;-89
2021/01/13 01:45:29;;;;;;;23.77;9.43;;;1.40;99.90;;;;;;4846905;29;20086;-90
2021/01/13 01:48:03;;;;;;;17.83;8.85;;;1.40;99.90;;;;;;4849541;29;20029;-90
2021/01/13 01:50:31;;;;;;;16.90;9.15;;;1.40;99.90;;;;;;4849398;29;20036;-92
2021/01/13 01:53:25;;;;;;;24.25;9.25;;;1.40;99.90;;;;;;4849181;29;20018;-91
2021/01/13 01:56:13;;;;;;;23.63;8.55;;;1.50;99.90;;;;;;4863098;29;20049;-92
2021/01/13 01:58:46;;;;;;;22.45;10.05;;;1.40;99.90;;;;;;4910243;29;20039;-93
2021/01/13 02:01:14;;;;;;;18.75;9.38;;;1.30;99.90;;;;;;4901175;29;20048;-94
2021/01/13 02:03:54;;;;;;;21.75;10.07;;;1.30;99.90;;;;;;4895261;29;20084;-93
2021/01/13 02:06:31;;;;;;;20.77;8.98;;;1.20;99.90;;;;;;4861153;29;20044;-92
2021/01/13 02:08:58;;;;;;;22.52;10.18;;;1.20;99.90;;;;;;4902702;29;20092;-92
2021/01/13 02:11:26;;;;;;;18.65;9.07;;;1.30;99.90;;;;;;4882947;29;20040;-93
2021/01/13 02:13:51;;;;;;;21.80;9.55;;;1.30;99.90;;;;;;4889364;29;20033;-91
2021/01/13 02:16:21;;;;;;;27.75;10.23;;;1.20;99.90;;;;;;4868995;29;20053;-91
2021/01/13 02:18:49;;;;;;;20.05;9.23;;;1.30;99.90;;;;;;4882469;29;20028;-93
2021/01/13 02:21:16;;;;;;;20.52;9.60;;;1.30;99.90;;;;;;4874660;29;20040;-91
2021/01/13 02:24:09;;;;;;;25.63;9.95;;;1.30;99.90;;;;;;4878920;29;20037;-89
2021/01/13 02:27:13;;;;;;;21.50;9.70;;;1.40;99.90;;;;;;4886165;29;20105;-92
2021/01/13 02:29:45;;;;;;;24.42;10.80;;;1.50;99.90;;;;;;4878819;29;20044;-92
2021/01/13 02:32:17;;;;;;;22.83;9.77;;;1.60;99.90;;;;;;4879137;29;20032;-92
2021/01/13 02:35:09;;;;;;;22.73;9.10;;;1.60;99.90;;;;;;4892989;29;20037;-92
2021/01/13 02:38:07;;;;;;;19.90;11.30;;;1.40;99.90;;;;;;4885329;29;20043;-92
2021/01/13 02:40:34;;;;;;;26.58;11.30;;;1.30;99.90;;;;;;4894136;29;20024;-91
2021/01/13 02:43:12;;;;;;;16.50;8.55;;;1.20;99.90;;;;;;4910619;29;20048;-92
2021/01/13 02:45:47;;;;;;;26.35;10.85;;;1.10;99.90;;;;;;4896426;29;20089;-91
2021/01/13 02:48:23;;;;;;;19.60;11.02;;;1.10;99.90;;;;;;4895026;29;20152;-92
2021/01/13 02:50:57;;;;;;;21.90;11.07;;;1.00;99.90;;;;;;4875743;29;20049;-93
2021/01/13 02:53:29;;;;;;;19.08;10.35;;;0.80;99.90;;;;;;4880585;29;20013;-93
2021/01/13 02:56:14;;;;;;;28.80;12.68;;;0.80;99.90;;;;;;4895997;29;20036;-92
2021/01/13 02:58:40;;;;;;;24.65;10.57;;;0.70;99.90;;;;;;4889133;29;20048;-89
2021/01/13 03:01:09;;;;;;;29.00;11.80;;;0.70;99.90;;;;;;4900158;29;20028;-92
2021/01/13 03:03:36;;;;;;;31.27;12.30;;;0.70;99.90;;;;;;4888895;29;20045;-92
2021/01/13 03:06:07;;;;;;;31.42;12.70;;;0.80;99.90;;;;;;4872311;29;20029;-92
2021/01/13 03:09:02;;;;;;;19.73;10.10;;;0.80;99.90;;;;;;4887765;29;20040;-92
2021/01/13 03:11:29;;;;;;;25.30;11.20;;;0.80;99.90;;;;;;4891804;29;20398;-91
2021/01/13 03:14:03;;;;;;;19.90;12.20;;;0.90;99.90;;;;;;4873630;29;20052;-91
2021/01/13 03:16:32;;;;;;;26.30;12.45;;;1.00;99.90;;;;;;4895203;29;20399;-92
2021/01/13 03:19:03;;;;;;;27.17;13.20;;;1.10;99.90;;;;;;4883036;29;20341;-90
2021/01/13 03:22:00;;;;;;;22.25;12.20;;;1.10;99.90;;;;;;4894732;29;20487;-91
2021/01/13 03:25:03;;;;;;;23.33;12.57;;;1.00;99.90;;;;;;4859726;29;20545;-91
2021/01/13 03:27:36;;;;;;;27.00;12.70;;;0.90;99.90;;;;;;4866380;29;20086;-90
2021/01/13 03:30:07;;;;;;;25.40;11.48;;;1.00;99.90;;;;;;4883583;29;20025;-91
2021/01/13 03:33:11;;;;;;;27.05;11.52;;;1.00;99.90;;;;;;4866966;29;20120;-91
2021/01/13 03:36:06;;;;;;;27.67;12.52;;;1.00;99.90;;;;;;4854492;29;20503;-91
2021/01/13 03:38:33;;;;;;;27.80;11.20;;;0.90;99.90;;;;;;4850732;29;20049;-91
2021/01/13 03:41:04;;;;;;;31.65;12.90;;;0.90;99.90;;;;;;4842018;29;20038;-91
2021/01/13 03:43:39;;;;;;;23.15;11.40;;;0.80;99.90;;;;;;4850082;29;20488;-92
2021/01/13 03:46:09;;;;;;;19.52;11.93;;;0.80;99.90;;;;;;4808704;29;20415;-89
2021/01/13 03:48:47;;;;;;;22.30;11.70;;;0.60;99.90;;;;;;4794424;29;20043;-91
2021/01/13 03:51:36;;;;;;;27.23;14.90;;;0.60;99.90;;;;;;4817047;29;20055;-90
2021/01/13 03:54:05;;;;;;;33.35;13.80;;;0.60;99.90;;;;;;4799187;29;20038;-91
2021/01/13 03:56:45;;;;;;;27.98;13.75;;;0.70;99.90;;;;;;4820760;29;20352;-91
2021/01/13 03:59:19;;;;;;;37.50;14.75;;;0.70;99.90;;;;;;4799077;29;20434;-92
2021/01/13 04:01:59;;;;;;;29.77;13.73;;;0.80;99.90;;;;;;4812316;29;20054;-93
2021/01/13 04:04:40;;;;;;;29.60;13.70;;;0.90;99.90;;;;;;4811728;29;20043;-90
2021/01/13 04:07:09;;;;;;;20.77;12.90;;;0.90;99.90;;;;;;4811202;29;20062;-91
2021/01/13 04:09:35;;;;;;;31.02;15.85;;;0.90;99.90;;;;;;4823975;29;20038;-92
2021/01/13 04:12:15;;;;;;;29.55;13.30;;;1.00;99.90;;;;;;4829709;29;20137;-94
2021/01/13 04:14:49;;;;;;;25.98;12.27;;;0.90;99.90;;;;;;4843452;29;20165;-91
2021/01/13 04:17:17;;;;;;;25.38;12.55;;;1.00;99.90;;;;;;4865033;29;20032;-91
2021/01/13 04:19:44;;;;;;;30.50;13.70;;;1.00;99.90;;;;;;4889393;29;20044;-92
2021/01/13 04:22:15;;;;;;;27.02;13.07;;;0.90;99.90;;;;;;4837783;29;20372;-92
2021/01/13 04:24:47;;;;;;;28.63;12.65;;;0.90;99.90;;;;;;4859278;29;20053;-90
2021/01/13 04:27:19;;;;;;;28.40;13.95;;;0.90;99.90;;;;;;4867256;29;20034;-92
2021/01/13 04:29:47;;;;;;;31.15;14.55;;;0.80;99.90;;;;;;4857734;29;20038;-92
2021/01/13 04:32:15;;;;;;;29.23;12.20;;;0.80;99.90;;;;;;4859775;29;20018;-92
2021/01/13 04:34:41;;;;;;;29.02;14.18;;;0.70;99.90;;;;;;4883013;29;20111;-90
2021/01/13 04:37:08;;;;;;;30.73;14.43;;;0.80;99.90;;;;;;4883765;29;20030;-92
2021/01/13 04:39:36;;;;;;;33.78;15.13;;;0.90;99.90;;;;;;4883320;29;20045;-92
2021/01/13 04:42:20;;;;;;;23.02;14.52;;;0.90;99.90;;;;;;4878803;29;20034;-93
2021/01/13 04:45:26;;;;;;;27.17;15.65;;;0.90;99.90;;;;;;4858948;29;20026;-93
2021/01/13 04:51:11;;;;;;;29.88;15.75;;;0.90;99.90;;;;;;4846863;29;20057;-94
2021/01/13 04:53:38;;;;;;;32.83;15.63;;;1.00;99.90;;;;;;4846454;29;20050;-94
2021/01/13 04:56:12;;;;;;;40.10;17.35;;;1.00;99.90;;;;;;4828195;29;20066;-94
2021/01/13 04:59:03;;;;;;;34.75;16.40;;;1.10;99.90;;;;;;4823365;29;20051;-94
2021/01/13 05:01:29;;;;;;;;;;;1.10;99.90;;;;;;4816076;29;20074;-94
2021/01/13 05:04:01;;;;;;;31.77;15.07;;;1.00;99.90;;;;;;4797479;29;19925;-95
2021/01/13 05:06:50;;;;;;;35.42;16.58;;;1.00;99.90;;;;;;4794483;29;20039;-91
2021/01/13 05:09:17;;;;;;;26.55;16.60;;;1.10;99.90;;;;;;4796498;29;20500;-92
2021/01/13 05:12:09;;;;;;;30.52;16.55;;;1.30;99.90;;;;;;4805271;29;20058;-91
2021/01/13 05:14:46;;;;;;;34.95;15.90;;;1.40;99.90;;;;;;4751614;30;20040;-89
2021/01/13 05:17:56;;;;;;;38.10;18.08;;;1.50;99.90;;;;;;4739292;30;20085;-90
2021/01/13 05:20:27;;;;;;;29.15;15.43;;;1.60;99.90;;;;;;4748533;30;20067;-90
2021/01/13 05:22:55;;;;;;;27.88;16.27;;;1.60;99.90;;;;;;4773768;30;20028;-91
2021/01/13 05:25:55;;;;;;;31.20;15.05;;;1.70;99.90;;;;;;4778702;29;20042;-92
2021/01/13 05:28:22;;;;;;;32.20;14.55;;;1.80;99.90;;;;;;4762317;30;20036;-91
2021/01/13 05:31:02;;;;;;;39.65;17.02;;;1.80;99.90;;;;;;4749595;30;20040;-90
2021/01/13 05:33:30;;;;;;;29.75;16.40;;;1.80;99.90;;;;;;4753783;30;20032;-89
2021/01/13 05:36:02;;;;;;;34.42;17.88;;;1.90;99.90;;;;;;4731079;30;20097;-90
2021/01/13 05:39:07;;;;;;;29.08;15.38;;;1.80;99.90;;;;;;4756724;29;20038;-91
2021/01/13 05:41:41;;;;;;;31.17;16.77;;;1.80;99.90;;;;;;4752548;30;20227;-90
2021/01/13 05:44:10;;;;;;;30.63;16.65;;;1.90;99.90;;;;;;4775143;30;20046;-90
2021/01/13 05:46:46;;;;;;;32.63;15.32;;;1.90;99.90;;;;;;4748449;30;20044;-90
2021/01/13 05:49:14;;;;;;;31.27;16.05;;;1.90;99.90;;;;;;4755200;30;20606;-90
2021/01/13 05:51:44;;;;;;;35.70;15.95;;;1.90;99.90;;;;;;4786680;29;20060;-92
2021/01/13 05:54:15;;;;;;;32.60;16.80;;;1.90;99.90;;;;;;4796454;29;20027;-91
2021/01/13 05:56:42;;;;;;;30.95;16.95;;;1.90;99.90;;;;;;4808594;29;20034;-91
2021/01/13 05:59:19;;;;;;;25.88;15.85;;;1.90;99.90;;;;;;4785015;30;20104;-90
2021/01/13 06:01:56;;;;;;;22.95;14.82;;;2.00;99.90;;;;;;4793215;30;20096;-92
2021/01/13 06:04:24;;;;;;;27.98;15.57;;;1.90;99.90;;;;;;4810199;29;20031;-92
2021/01/13 06:07:34;;;;;;;31.75;15.27;;;1.90;99.90;;;;;;4823428;29;20070;-92
2021/01/13 06:10:01;;;;;;;29.80;14.00;;;1.90;99.90;;;;;;4831065;29;20030;-91
2021/01/13 06:12:30;;;;;;;26.90;13.73;;;2.00;99.90;;;;;;4794893;30;20190;-93
2021/01/13 06:14:57;;;;;;;27.77;15.07;;;2.00;99.90;;;;;;4788078;30;20700;-90
2021/01/13 06:17:24;;;;;;;28.25;14.95;;;2.00;99.90;;;;;;4811719;29;20042;-91
2021/01/13 06:19:55;;;;;;;26.63;15.27;;;2.00;99.90;;;;;;4848590;29;20066;-91
2021/01/13 06:22:33;;;;;;;25.48;13.43;;;2.10;99.90;;;;;;4844895;29;20071;-92
2021/01/13 06:25:11;;;;;;;29.90;14.95;;;2.10;99.90;;;;;;4856895;29;20090;-91
2021/01/13 06:28:15;;;;;;;31.58;15.50;;;2.10;99.90;;;;;;4843602;29;20034;-90
2021/01/13 06:30:43;;;;;;;22.55;12.32;;;2.10;99.90;;;;;;4865463;29;20018;-91
2021/01/13 06:33:16;;;;;;;21.48;13.15;;;2.30;99.90;;;;;;4847280;29;20050;-90
2021/01/13 06:35:41;;;;;;;26.40;14.48;;;2.30;99.90;;;;;;4839727;29;20133;-91
2021/01/13 06:39:03;;;;;;;36.38;14.15;;;2.30;99.90;;;;;;4844738;29;20034;-90
2021/01/13 06:41:46;;;;;;;27.45;11.85;;;2.50;99.90;;;;;;4783656;30;20083;-91
2021/01/13 06:44:12;;;;;;;24.85;12.38;;;2.50;99.90;;;;;;4804550;29;20042;-91
2021/01/13 06:46:38;;;;;;;19.92;11.75;;;2.60;99.90;;;;;;4825000;29;20027;-91
2021/01/13 06:49:12;;;;;;;23.35;12.77;;;2.60;99.90;;;;;;4801204;29;20049;-90
2021/01/13 06:51:44;;;;;;;24.85;12.60;;;2.50;99.90;;;;;;4784161;29;20038;-90
2021/01/13 06:54:11;;;;;;;;;;;2.40;99.90;;;;;;4822694;29;20132;-90
2021/01/13 06:56:50;;;;;;;28.23;12.95;;;2.40;99.90;;;;;;4828309;29;19950;-90
2021/01/13 06:59:22;;;;;;;24.77;11.70;;;2.40;99.90;;;;;;4824508;29;20125;-90
2021/01/13 07:02:12;;;;;;;23.92;12.07;;;2.20;99.90;;;;;;4823635;29;20122;-91
2021/01/13 07:04:46;;;;;;;33.60;15.20;;;2.20;99.90;;;;;;4763984;29;20024;-92
2021/01/13 07:07:12;;;;;;;32.35;15.77;;;2.20;99.90;;;;;;4792573;29;20047;-92
2021/01/13 07:09:45;;;;;;;26.27;13.63;;;2.00;99.90;;;;;;4789915;30;20076;-89
2021/01/13 07:12:15;;;;;;;22.20;12.35;;;1.90;99.90;;;;;;4936098;23;20030;-89
2021/01/13 07:14:42;;;;;;;32.92;14.07;;;1.90;99.90;;;;;;4924496;29;20036;-91
2021/01/13 07:17:11;;;;;;;20.98;13.15;;;1.70;99.90;;;;;;4941815;29;20080;-90
2021/01/13 07:19:52;;;;;;;29.48;13.50;;;1.70;99.90;;;;;;4925544;29;20032;-90
2021/01/13 07:22:24;;;;;;;29.27;15.25;;;1.70;99.90;;;;;;4918966;29;20072;-91
2021/01/13 07:24:52;;;;;;;20.88;10.70;;;1.60;99.90;;;;;;4940469;29;20043;-90
2021/01/13 07:27:20;;;;;;;26.35;14.73;;;1.70;99.90;;;;;;4922766;29;20039;-91
2021/01/13 07:29:49;;;;;;;33.33;13.65;;;1.60;99.90;;;;;;4927765;29;20039;-91
2021/01/13 07:32:21;;;;;;;34.38;16.10;;;1.60;99.90;;;;;;4930912;29;20072;-92
2021/01/13 07:35:05;;;;;;;29.58;14.38;;;1.70;99.90;;;;;;4916592;29;20016;-91
2021/01/13 07:37:53;;;;;;;22.92;13.93;;;1.60;99.90;;;;;;4902276;29;20080;-92
2021/01/13 07:40:53;;;;;;;28.35;15.55;;;1.50;99.90;;;;;;4885875;29;20028;-93
2021/01/13 07:44:06;;;;;;;31.60;16.25;;;1.50;99.90;;;;;;4782570;30;20063;-90
2021/01/13 07:46:33;;;;;;;35.17;16.77;;;1.50;99.90;;;;;;4781267;29;20531;-89
2021/01/13 07:49:23;;;;;;;30.48;15.27;;;1.40;99.90;;;;;;4779106;30;20047;-91
2021/01/13 07:51:53;;;;;;;27.23;15.38;;;1.40;99.90;;;;;;4798534;29;20042;-90
2021/01/13 07:54:32;;;;;;;22.00;14.70;;;1.50;99.90;;;;;;4805775;29;20047;-91
2021/01/13 07:57:07;;;;;;;29.52;14.93;;;1.50;99.90;;;;;;4787651;30;20048;-92
2021/01/13 08:00:04;;;;;;;49.85;18.13;;;1.50;99.90;;;;;;4772296;30;20040;-93
2021/01/13 08:03:15;;;;;;;28.20;15.25;;;1.60;99.90;;;;;;4754135;30;20379;-89
2021/01/13 08:06:19;;;;;;;27.05;15.13;;;1.60;99.90;;;;;;4754389;30;20047;-89
2021/01/13 08:09:25;;;;;;;28.48;14.10;;;1.50;99.90;;;;;;4747789;30;20056;-90
2021/01/13 08:12:13;;;;;;;32.60;13.02;;;1.60;99.90;;;;;;4751028;30;20052;-90
2021/01/13 08:15:01;;;;;;;24.88;13.90;;;1.70;99.90;;;;;;4750927;30;20044;-90
2021/01/13 08:17:50;;;;;;;21.10;13.50;;;1.70;99.90;;;;;;4764157;30;20043;-89
2021/01/13 08:26:43;;;;;;;22.10;12.63;;;1.90;99.90;;;;;;4896565;29;20035;-88
2021/01/13 08:29:19;;;;;;;21.20;12.20;;;2.00;99.90;;;;;;4879401;29;20049;-89
2021/01/13 09:33:20;;;;;;;20.25;8.63;;;3.60;99.90;;;;;;5852641;23;20024;-92
2021/01/13 09:35:57;;;;;;;18.90;8.40;;;3.70;99.90;;;;;;4876096;29;20062;-93
2021/01/13 09:38:31;;;;;;;25.83;9.73;;;3.80;99.90;;;;;;4860745;29;20084;-93
2021/01/13 09:41:01;;;;;;;21.15;9.32;;;3.90;99.90;;;;;;4854027;29;20106;-94
2021/01/13 09:43:47;;;;;;;17.00;9.07;;;4.00;99.90;;;;;;4855330;29;20079;-92
2021/01/13 09:46:35;;;;;;;20.42;8.40;;;4.20;99.90;;;;;;4836608;29;20041;-89
2021/01/13 09:49:10;;;;;;;19.45;9.05;;;4.40;99.90;;;;;;4831780;29;20030;-90
2021/01/13 09:51:39;;;;;;;12.13;7.78;;;4.60;99.90;;;;;;4844208;29;20030;-90
2021/01/13 09:54:08;;;;;;;16.48;8.98;;;4.80;99.90;;;;;;4918794;23;20041;-90
2021/01/13 10:01:58;;;;;;;17.25;8.50;;;5.30;99.90;;;;;;4904188;29;20104;-91
2021/01/13 10:17:06;;;;;;;19.08;8.95;;;5.60;99.90;;;;;;4903784;29;20265;-88
2021/01/13 10:19:35;;;;;;;17.58;8.68;;;5.60;99.90;;;;;;4947628;23;20051;-88
2021/01/13 10:22:02;;;;;;;20.23;8.07;;;5.70;99.90;;;;;;4907245;29;20032;-89
2021/01/13 10:24:31;;;;;;;19.42;8.45;;;5.80;99.90;;;;;;4933305;23;20052;-90
2021/01/13 10:27:23;;;;;;;24.02;9.73;;;5.90;99.90;;;;;;4972663;23;20058;-91
2021/01/13 10:29:49;;;;;;;19.67;9.05;;;6.00;99.90;;;;;;4880997;29;20034;-90
2021/01/13 10:32:53;;;;;;;22.83;8.63;;;6.30;99.90;;;;;;4858789;29;20611;-90
2021/01/13 10:35:23;;;;;;;17.42;9.70;;;6.40;99.90;;;;;;4880552;29;20075;-91
2021/01/13 10:40:47;;;;;;;15.30;7.15;;;6.50;99.90;;;;;;4900849;29;20057;-88
2021/01/13 10:43:21;;;;;;;16.92;8.48;;;6.70;99.90;;;;;;4865173;29;20052;-90
2021/01/13 10:45:59;;;;;;;15.48;9.02;;;6.60;99.90;;;;;;4882549;29;20025;-89
2021/01/13 10:48:44;;;;;;;15.73;8.52;;;6.80;99.90;;;;;;4882554;29;20029;-88
2021/01/13 10:51:16;;;;;;;11.82;7.15;;;6.70;99.90;;;;;;4886502;29;20094;-90
2021/01/13 11:00:06;;;;;;;14.27;7.53;;;6.50;99.90;;;;;;1340642;23;20259;-89
2021/01/13 11:02:33;;;;;;;18.10;7.85;;;6.50;99.90;;;;;;4865276;29;20051;-90
2021/01/13 11:05:00;;;;;;;15.65;8.48;;;6.60;99.90;;;;;;4858019;29;20126;-90
2021/01/13 11:07:39;;;;;;;20.77;8.32;;;6.60;99.90;;;;;;4842657;29;20143;-89
2021/01/13 11:10:10;;;;;;;15.25;7.07;;;6.60;99.90;;;;;;4840389;29;20056;-87
2021/01/13 11:12:36;;;;;;;15.40;7.43;;;6.50;99.90;;;;;;4848728;29;20062;-89
2021/01/13 11:15:11;;;;;;;17.58;8.15;;;6.50;99.90;;;;;;4865529;29;20041;-89
2021/01/13 11:17:37;;;;;;;16.77;7.53;;;6.50;99.90;;;;;;4852610;29;20036;-88
2021/01/13 11:20:06;;;;;;;24.33;8.10;;;6.30;99.90;;;;;;4880980;29;20031;-90
2021/01/13 11:22:48;;;;;;;19.92;8.82;;;6.40;99.90;;;;;;4883809;29;20049;-89
2021/01/13 11:25:35;;;;;;;13.60;6.75;;;6.40;99.90;;;;;;4868664;29;20058;-88
2021/01/13 11:28:08;;;;;;;19.08;8.43;;;6.40;99.90;;;;;;4863169;29;20018;-90
2021/01/13 11:30:45;;;;;;;17.08;7.32;;;6.40;99.90;;;;;;4850713;29;20049;-89
2021/01/13 11:33:15;;;;;;;18.70;7.88;;;6.50;99.90;;;;;;4957881;23;20041;-89
2021/01/13 11:35:42;;;;;;;17.42;7.75;;;6.40;99.90;;;;;;4887577;29;20028;-88
2021/01/13 11:38:35;;;;;;;21.73;9.10;;;6.40;99.90;;;;;;4887055;29;20048;-89
2021/01/13 11:41:44;;;;;;;17.73;7.15;;;6.60;99.90;;;;;;5393898;23;20055;-89
2021/01/13 11:46:53;;;;;;;18.35;7.03;;;6.70;99.90;;;;;;5002379;23;20784;-88
2021/01/13 11:49:59;;;;;;;18.67;6.93;;;6.70;99.90;;;;;;4886280;29;20061;-87
2021/01/13 11:52:41;;;;;;;15.82;6.90;;;6.60;99.90;;;;;;4826425;29;20054;-87
2021/01/13 11:55:07;;;;;;;18.40;7.85;;;6.60;99.90;;;;;;4832175;29;20050;-88
2021/01/13 11:57:48;;;;;;;21.15;8.13;;;6.50;99.90;;;;;;4842166;29;20034;-87
2021/01/13 13:21:14;;;;;;;14.70;5.63;;;6.30;99.90;;;;;;5139250;23;20059;-92
2021/01/13 13:24:00;;;;;;;11.07;5.25;;;6.40;99.90;;;;;;4859243;29;20033;-94
2021/01/13 13:26:26;;;;;;;16.35;7.03;;;6.30;99.90;;;;;;4902965;29;20024;-93
2021/01/13 13:28:52;;;;;;;13.55;5.90;;;6.30;99.90;;;;;;4868116;29;20368;-93
2021/01/13 13:31:23;;;;;;;11.18;5.00;;;6.30;99.90;;;;;;4893663;29;20033;-93
2021/01/13 13:33:50;;;;;;;11.82;5.45;;;6.30;99.90;;;;;;4873481;29;20025;-95
2021/01/13 13:36:17;;;;;;;12.43;4.38;;;6.30;99.90;;;;;;4876795;29;20396;-95
2021/01/13 13:38:43;;;;;;;19.67;5.63;;;6.20;99.90;;;;;;4898693;29;20029;-94
2021/01/13 13:41:11;;;;;;;14.13;4.45;;;6.10;99.90;;;;;;4892994;29;20022;-94
2021/01/13 13:44:19;;;;;;;11.57;4.65;;;6.00;99.90;;;;;;4878094;29;20029;-92
2021/01/13 13:46:50;;;;;;;12.60;4.50;;;5.80;99.90;;;;;;4879696;29;20052;-94
2021/01/13 13:49:18;;;;;;;;;;;5.80;99.90;;;;;;4878927;29;20053;-91
2021/01/13 13:52:17;;;;;;;;;;;;;;;;;;;;;
2021/01/13 13:54:53;;;;;;;15.03;5.10;;;5.80;99.90;;;;;;5317768;23;20115;-87
2021/01/13 14:08:18;;;;;;;11.27;4.15;;;5.70;99.90;;;;;;5271949;23;20101;-93
2021/01/13 14:10:51;;;;;;;8.32;4.68;;;5.70;99.90;;;;;;4914889;23;20060;-93
2021/01/13 14:13:22;;;;;;;14.05;4.55;;;5.70;99.90;;;;;;4864011;29;20013;-91
2021/01/13 14:15:54;;;;;;;16.05;5.43;;;5.80;99.90;;;;;;4865182;29;20030;-93
2021/01/13 14:18:22;;;;;;;16.70;6.60;;;5.70;99.90;;;;;;4900259;23;20087;-91
2021/01/13 14:23:35;;;;;;;13.05;4.60;;;5.80;99.90;;;;;;5303418;23;20067;-94
2021/01/13 14:31:13;;;;;;;14.68;5.05;;;5.70;99.90;;;;;;4863405;29;20054;-94
2021/01/13 14:33:39;;;;;;;11.38;6.55;;;5.60;99.90;;;;;;4860753;29;20055;-94
2021/01/13 14:36:09;;;;;;;16.38;5.25;;;5.40;99.90;;;;;;4851567;29;20033;-93
2021/01/13 14:38:37;;;;;;;12.02;6.00;;;5.30;99.90;;;;;;4878950;29;20081;-90
2021/01/13 14:41:53;;;;;;;;;;;;;;;;;;;;;
2021/01/13 14:44:45;;;;;;;11.85;5.30;;;5.10;99.90;;;;;;4806827;30;20075;-94
2021/01/13 14:58:09;;;;;;;9.50;4.47;;;4.80;99.90;;;;;;5390817;23;20134;-95
2021/01/13 15:16:52;;;;;;;17.33;6.45;;;4.60;99.90;;;;;;4981902;23;20056;-96
2021/01/13 15:19:42;;;;;;;;;;;;;;;;;;;;;
2021/01/13 15:22:47;;;;;;;;;;;;;;;;;;;;;
2021/01/13 15:25:42;;;;;;;11.50;5.53;;;4.40;99.90;;;;;;4753443;30;20064;-95
2021/01/13 15:28:40;;;;;;;;;;;;;;;;;;;;;
2021/01/13 15:41:27;;;;;;;;;;;4.20;99.90;;;;;;4875706;29;20057;-92
2021/01/13 15:44:06;;;;;;;12.30;5.68;;;4.20;99.90;;;;;;4859095;29;19932;-92
2021/01/13 15:46:48;;;;;;;;;;;;;;;;;;;;;
2021/01/13 15:49:31;;;;;;;17.55;6.22;;;4.10;99.90;;;;;;4877879;29;20053;-94
2021/01/13 15:52:09;;;;;;;14.73;6.47;;;4.10;99.90;;;;;;4860005;29;20037;-92
2021/01/13 15:54:50;;;;;;;15.02;7.28;;;4.10;99.90;;;;;;4885652;29;20223;-90
2021/01/13 15:57:31;;;;;;;12.15;6.50;;;4.10;99.90;;;;;;4930019;23;20048;-93
2021/01/13 16:00:42;;;;;;;;;;;;;;;;;;;;;
2021/01/13 16:03:11;;;;;;;13.60;6.97;;;3.90;99.90;;;;;;4880832;29;20155;-96
2021/01/13 16:06:27;;;;;;;20.90;7.28;;;3.90;99.90;;;;;;4866851;29;20040;-94
2021/01/13 16:09:06;;;;;;;16.27;7.45;;;3.80;99.90;;;;;;4837934;29;20102;-94
2021/01/13 16:12:25;;;;;;;14.57;8.32;;;3.70;99.90;;;;;;4885791;29;20094;-95
2021/01/13 16:20:07;;;;;;;14.65;6.90;;;3.70;99.90;;;;;;4974504;23;20061;-89
2021/01/13 16:22:55;;;;;;;17.77;8.07;;;3.70;99.90;;;;;;4897707;29;20455;-87
2021/01/13 16:25:28;;;;;;;15.52;7.05;;;3.70;99.90;;;;;;4896195;29;20036;-89
2021/01/13 16:27:54;;;;;;;14.10;7.18;;;3.70;99.90;;;;;;4894172;29;20035;-88
2021/01/13 16:30:23;;;;;;;16.92;7.78;;;3.70;99.90;;;;;;4893377;29;20104;-87
2021/01/13 16:32:52;;;;;;;17.98;8.82;;;3.70;99.90;;;;;;4906161;29;20028;-88
2021/01/13 16:38:10;;;;;;;18.13;9.10;;;3.60;99.90;;;;;;4905903;29;20036;-88
2021/01/13 16:40:36;;;;;;;17.23;7.18;;;3.60;99.90;;;;;;4855384;29;20041;-87
2021/01/13 16:43:17;;;;;;;13.77;7.93;;;3.60;99.90;;;;;;4871238;29;20043;-86
2021/01/13 16:45:49;;;;;;;16.25;9.02;;;3.70;99.90;;;;;;4861308;29;20034;-88
2021/01/13 16:48:24;;;;;;;12.32;7.07;;;3.70;99.90;;;;;;4879343;29;20066;-87
2021/01/13 16:50:58;;;;;;;14.88;8.98;;;3.70;99.90;;;;;;4857562;29;20095;-89
2021/01/13 16:53:26;;;;;;;14.73;7.63;;;3.70;99.90;;;;;;4873257;29;20053;-88
2021/01/13 16:56:00;;;;;;;17.67;8.30;;;3.70;99.90;;;;;;4852387;29;20045;-88
2021/01/13 16:58:28;;;;;;;19.15;8.48;;;3.90;99.90;;;;;;4861839;29;20059;-87
2021/01/13 17:00:57;;;;;;;17.02;8.15;;;3.80;99.90;;;;;;4881959;29;20471;-86
2021/01/13 17:03:32;;;;;;;15.30;7.53;;;3.80;99.90;;;;;;4831600;29;20026;-88
2021/01/13 17:06:04;;;;;;;18.15;8.30;;;3.70;99.90;;;;;;4858458;29;20475;-88
2021/01/13 17:08:36;;;;;;;20.00;8.80;;;3.60;99.90;;;;;;4858715;29;20467;-88
2021/01/13 17:11:28;;;;;;;21.27;10.05;;;3.60;99.90;;;;;;4855681;29;20037;-87
2021/01/13 17:14:05;;;;;;;14.38;8.55;;;3.70;99.90;;;;;;4875845;29;20034;-89
2021/01/13 17:16:37;;;;;;;;;;;3.70;99.90;;;;;;4846054;29;20053;-91
2021/01/13 17:19:04;;;;;;;14.65;8.32;;;3.60;99.90;;;;;;4862827;29;20014;-82
2021/01/13 17:21:35;;;;;;;24.17;10.85;;;3.70;99.90;;;;;;4887399;29;20638;-90
2021/01/13 17:24:00;;;;;;;16.55;8.63;;;3.80;99.90;;;;;;4875128;29;20099;-86
2021/01/13 17:26:27;;;;;;;18.80;9.02;;;3.80;99.90;;;;;;4863521;29;20519;-86
2021/01/13 17:28:56;;;;;;;23.10;11.88;;;3.70;99.90;;;;;;4844082;29;20499;-83
2021/01/13 17:31:22;;;;;;;17.58;9.98;;;3.70;99.90;;;;;;4855526;29;20079;-86
2021/01/13 17:33:50;;;;;;;19.75;10.38;;;3.80;99.90;;;;;;4863955;29;20030;-91
2021/01/13 17:36:17;;;;;;;15.95;9.55;;;3.80;99.90;;;;;;4842707;29;20137;-84
2021/01/13 17:38:46;;;;;;;17.67;9.30;;;3.80;99.90;;;;;;4859923;29;20042;-86
2021/01/13 17:41:16;;;;;;;25.73;10.18;;;3.80;99.90;;;;;;4838726;29;20109;-85
2021/01/13 17:43:48;;;;;;;17.00;9.30;;;3.70;99.90;;;;;;4847688;29;20034;-88